Time;durP1;ratioP1;P1;durP2;ratioP2;P2;SDS_P1;SDS_P2;PMS_P1;PMS_P2;Temp;Humidity;BMP_temperature;BMP_pressure;BME280_temperature;BME280_humidity;BME280_pressure;Samples;Min_cycle;Max_cycle;Signal;HPM_P1;HPM_P2
2021/01/09 00:00:58;;;;;;;14.25;9.90;;;2.70;78.90;;;1.54;63.38;94751.44;5051562;28;20220;-78
2021/01/09 00:03:25;;;;;;;11.95;8.75;;;2.70;78.80;;;1.52;63.44;94745.59;5051155;28;20689;-78
2021/01/09 00:05:52;;;;;;;11.85;8.25;;;2.60;78.70;;;1.54;63.28;94753.25;5035187;28;20720;-79
2021/01/09 00:08:19;;;;;;;11.00;8.13;;;2.60;78.80;;;1.53;63.34;94757.56;5051964;28;20279;-80
2021/01/09 00:10:49;;;;;;;13.68;9.30;;;2.60;78.70;;;1.55;63.09;94749.66;5050930;28;20214;-80
2021/01/09 00:13:17;;;;;;;12.20;8.43;;;2.60;78.70;;;1.55;63.27;94752.25;5031555;28;20213;-79
2021/01/09 00:15:44;;;;;;;12.38;8.48;;;2.60;78.70;;;1.53;63.15;94757.56;5016091;28;20387;-79
2021/01/09 00:18:11;;;;;;;14.63;9.90;;;2.60;78.70;;;1.54;63.26;94750.66;5035266;28;20230;-79
2021/01/09 00:20:39;;;;;;;14.15;9.30;;;2.60;78.70;;;1.52;63.29;94758.53;5050965;28;20220;-79
2021/01/09 00:23:05;;;;;;;12.93;9.07;;;2.60;78.70;;;1.51;63.40;94759.47;5034754;28;20196;-79
2021/01/09 00:25:32;;;;;;;11.30;8.13;;;2.60;78.70;;;1.51;63.56;94753.50;5034930;28;20222;-79
2021/01/09 00:27:59;;;;;;;12.43;8.43;;;2.60;78.70;;;1.53;63.26;94767.13;5018150;28;20552;-79
2021/01/09 00:30:26;;;;;;;12.98;8.75;;;2.60;78.80;;;1.51;63.19;94748.34;5059267;28;20222;-79
2021/01/09 00:32:53;;;;;;;12.27;8.77;;;2.60;78.80;;;1.49;63.26;94752.81;5050414;28;20223;-80
2021/01/09 00:35:19;;;;;;;13.35;9.23;;;2.60;78.80;;;1.51;63.37;94756.09;5034422;28;20247;-79
2021/01/09 00:37:46;;;;;;;13.70;9.50;;;2.60;78.80;;;1.53;63.43;94761.94;5051453;28;20212;-79
2021/01/09 00:40:13;;;;;;;15.05;10.15;;;2.60;78.80;;;1.50;63.75;94765.63;5033975;28;20642;-79
2021/01/09 00:42:41;;;;;;;13.82;9.43;;;2.60;78.90;;;1.52;63.45;94770.66;5051452;28;20605;-79
2021/01/09 00:45:09;;;;;;;15.98;10.90;;;2.60;78.90;;;1.50;63.73;94768.22;5034234;28;20218;-79
2021/01/09 00:47:37;;;;;;;15.30;10.63;;;2.60;79.00;;;1.51;63.69;94777.56;5034540;28;20200;-79
2021/01/09 00:50:05;;;;;;;14.20;9.80;;;2.60;79.00;;;1.50;63.63;94775.97;5033512;28;20585;-79
2021/01/09 00:52:32;;;;;;;15.60;10.38;;;2.60;79.10;;;1.49;63.50;94774.31;5034543;28;20671;-79
2021/01/09 00:54:59;;;;;;;13.43;8.82;;;2.60;79.10;;;1.49;63.47;94774.31;5050678;28;20244;-79
2021/01/09 00:57:27;;;;;;;14.70;10.00;;;2.60;79.90;;;1.50;63.87;94775.13;5034475;28;20246;-78
2021/01/09 00:59:54;;;;;;;14.00;10.35;;;2.60;79.20;;;1.51;63.71;94779.34;5033048;28;20663;-79
2021/01/09 01:02:20;;;;;;;14.45;10.57;;;2.60;79.10;;;1.49;63.63;94784.66;5034261;28;20277;-80
2021/01/09 01:04:48;;;;;;;15.82;10.57;;;2.60;79.20;;;1.50;63.88;94791.47;5034352;28;20220;-78
2021/01/09 01:07:15;;;;;;;15.77;10.18;;;2.60;79.30;;;1.52;63.56;94791.31;5051228;28;20246;-80
2021/01/09 01:09:42;;;;;;;15.45;10.63;;;2.60;79.30;;;1.52;63.69;94794.72;5033124;28;20222;-79
2021/01/09 01:12:09;;;;;;;14.32;9.70;;;2.60;79.30;;;1.53;64.18;94798.94;5034797;28;20615;-79
2021/01/09 01:14:36;;;;;;;13.93;9.70;;;2.50;79.20;;;1.54;63.73;94804.94;5050316;28;20223;-79
2021/01/09 01:17:04;;;;;;;15.85;10.60;;;2.60;79.30;;;1.54;63.96;94802.34;5034599;28;20191;-79
2021/01/09 01:19:32;;;;;;;13.63;9.82;;;2.60;79.30;;;1.54;64.06;94807.53;5034171;28;20270;-79
2021/01/09 01:21:58;;;;;;;16.17;10.90;;;2.70;79.40;;;1.53;64.00;94811.06;5034022;28;20212;-79
2021/01/09 01:24:25;;;;;;;14.35;9.85;;;2.60;79.30;;;1.53;64.03;94804.09;5034114;28;20298;-78
2021/01/09 01:26:52;;;;;;;14.25;9.70;;;2.60;79.30;;;1.54;63.88;94800.56;5051039;28;20196;-80
2021/01/09 01:29:19;;;;;;;15.65;10.40;;;2.60;79.30;;;1.46;64.06;94790.09;5049497;28;20204;-78
2021/01/09 01:31:45;;;;;;;15.27;10.48;;;2.60;79.30;;;1.53;64.01;94798.94;5067007;28;20203;-79
2021/01/09 01:34:13;;;;;;;14.32;10.00;;;2.60;79.30;;;1.53;64.11;94800.72;5017409;28;20267;-79
2021/01/09 01:36:39;;;;;;;15.55;10.70;;;2.60;79.30;;;1.50;64.01;94796.63;5034223;28;20192;-79
2021/01/09 01:39:06;;;;;;;15.55;10.38;;;2.60;79.30;;;1.49;64.18;94792.41;5049570;28;20188;-79
2021/01/09 01:41:33;;;;;;;13.88;9.95;;;2.60;79.30;;;1.51;64.13;94793.06;5050494;28;20200;-80
2021/01/09 01:43:59;;;;;;;12.52;9.38;;;2.60;79.30;;;1.53;64.02;94796.34;5036582;28;20299;-79
2021/01/09 01:46:26;;;;;;;13.02;9.38;;;2.60;79.30;;;1.53;63.97;94792.97;5054738;28;20196;-80
2021/01/09 01:48:53;;;;;;;14.68;10.30;;;2.60;79.30;;;1.52;64.17;94797.28;5037506;28;20298;-78
2021/01/09 01:51:19;;;;;;;15.82;10.50;;;2.70;79.40;;;1.54;63.82;94799.75;5053910;28;20314;-80
2021/01/09 01:53:46;;;;;;;17.58;10.90;;;2.60;79.30;;;1.54;63.98;94803.16;5037311;28;20694;-80
2021/01/09 01:56:13;;;;;;;16.27;11.02;;;2.60;79.30;;;1.56;64.10;94795.25;5054082;28;20587;-79
2021/01/09 01:58:39;;;;;;;14.45;10.43;;;2.60;79.30;;;1.51;63.90;94792.28;5052404;28;20245;-80
2021/01/09 02:01:09;;;;;;;15.23;10.90;;;2.60;79.30;;;1.57;63.96;94807.22;5054093;28;20236;-79
2021/01/09 02:03:36;;;;;;;15.40;10.23;;;2.60;79.30;;;1.54;64.04;94803.16;5037450;28;20662;-79
2021/01/09 02:06:17;;;;;;;16.33;11.15;;;2.60;79.30;;;1.53;64.27;94804.09;5037836;28;20224;-79
2021/01/09 02:09:21;;;;;;;16.30;10.90;;;2.60;79.30;;;1.48;64.24;94792.53;5037246;28;20215;-79
2021/01/09 02:12:07;;;;;;;14.30;9.73;;;2.60;79.30;;;1.47;64.21;94798.69;5041804;28;20729;-79
2021/01/09 02:14:56;;;;;;;13.10;9.75;;;2.60;79.30;;;1.42;64.36;94792.13;5042935;28;20247;-78
2021/01/09 02:17:25;;;;;;;14.90;10.68;;;2.60;79.30;;;1.41;64.18;94794.88;5053520;28;20211;-80
2021/01/09 02:19:57;;;;;;;14.30;9.75;;;2.50;79.20;;;1.41;64.18;94800.03;5053118;28;20278;-79
2021/01/09 02:22:24;;;;;;;14.85;10.20;;;2.60;79.30;;;1.37;64.71;94796.13;5036608;28;20712;-80
2021/01/09 02:24:51;;;;;;;15.23;10.35;;;2.60;79.30;;;1.33;64.34;94785.25;5070266;28;20415;-80
2021/01/09 02:27:19;;;;;;;14.95;10.43;;;2.60;79.30;;;1.35;64.40;94805.75;5020700;28;20224;-79
2021/01/09 02:30:08;;;;;;;14.32;10.07;;;2.50;79.20;;;1.32;64.23;94796.53;5019764;28;20216;-79
2021/01/09 02:32:53;;;;;;;13.25;9.30;;;2.50;79.20;;;1.33;64.38;94805.06;5036738;28;20279;-79
2021/01/09 02:35:21;;;;;;;15.63;10.38;;;2.50;79.20;;;1.35;64.19;94813.50;5033632;28;20308;-78
2021/01/09 02:37:49;;;;;;;15.30;10.57;;;2.50;79.30;;;1.34;64.67;94815.25;5017378;28;20220;-79
2021/01/09 02:40:19;;;;;;;16.38;11.13;;;2.50;79.50;;;1.34;64.33;94810.09;5021164;28;20265;-79
2021/01/09 02:42:46;;;;;;;16.48;10.70;;;2.50;79.40;;;1.37;64.57;94806.44;5053738;28;20552;-79
2021/01/09 02:45:13;;;;;;;14.13;9.15;;;2.50;79.40;;;1.37;64.40;94812.41;5035821;28;20227;-79
2021/01/09 02:47:41;;;;;;;13.68;9.48;;;2.50;79.40;;;1.39;64.29;94809.69;5036892;28;20691;-80
2021/01/09 02:50:10;;;;;;;14.48;9.75;;;2.50;79.50;;;1.39;64.50;94813.09;5053210;28;20218;-80
2021/01/09 02:52:41;;;;;;;13.48;9.60;;;2.50;79.50;;;1.39;64.25;94805.34;5053052;28;20246;-79
2021/01/09 02:55:09;;;;;;;13.15;9.38;;;2.50;79.50;;;1.41;64.38;94811.19;5052281;28;20322;-79
2021/01/09 02:57:35;;;;;;;15.13;9.98;;;2.50;79.50;;;1.39;64.42;94807.94;5019878;28;20207;-79
2021/01/09 03:00:05;;;;;;;14.57;9.50;;;2.50;79.60;;;1.43;64.63;94808.47;5034957;28;20220;-79
2021/01/09 03:02:32;;;;;;;14.90;10.45;;;2.50;79.50;;;1.42;64.63;94806.84;5053054;28;20200;-79
2021/01/09 03:04:58;;;;;;;14.18;9.90;;;2.50;79.50;;;1.45;64.32;94809.13;5019815;28;20216;-79
2021/01/09 03:07:25;;;;;;;13.98;9.48;;;2.50;79.50;;;1.48;64.30;94810.63;5036729;28;20673;-79
2021/01/09 03:09:52;;;;;;;14.48;9.98;;;2.50;79.50;;;1.47;64.36;94807.25;5036150;28;20215;-80
2021/01/09 03:12:19;;;;;;;15.07;10.43;;;2.60;79.60;;;1.47;64.21;94809.03;5036689;28;20204;-79
2021/01/09 03:14:46;;;;;;;14.80;10.05;;;2.50;79.50;;;1.47;64.38;94804.66;5035329;28;20239;-79
2021/01/09 03:17:12;;;;;;;13.15;8.93;;;2.60;79.50;;;1.46;64.27;94802.22;5059290;28;20605;-79
2021/01/09 03:19:39;;;;;;;13.00;9.25;;;2.60;79.50;;;1.49;64.29;94807.09;5033116;28;20578;-80
2021/01/09 03:22:07;;;;;;;16.02;10.13;;;2.50;79.40;;;1.48;64.24;94815.78;5051456;28;20192;-79
2021/01/09 03:24:33;;;;;;;14.57;10.10;;;2.50;79.40;;;1.46;64.02;94813.34;5034882;28;20719;-79
2021/01/09 03:27:00;;;;;;;12.40;9.13;;;2.60;79.40;;;1.47;64.08;94812.41;5030814;28;20200;-80
2021/01/09 03:29:27;;;;;;;13.40;9.07;;;2.60;79.40;;;1.48;63.94;94808.88;5046340;28;20673;-78
2021/01/09 03:31:53;;;;;;;12.48;9.23;;;2.60;79.40;;;1.42;64.29;94797.31;5032966;28;20644;-79
2021/01/09 03:34:20;;;;;;;15.10;10.57;;;2.60;79.30;;;1.47;64.36;94809.81;5033331;28;20240;-78
2021/01/09 03:36:47;;;;;;;12.63;9.02;;;2.60;79.30;;;1.47;64.11;94817.56;5032760;28;20236;-78
2021/01/09 03:39:14;;;;;;;11.98;8.57;;;2.60;79.30;;;1.47;64.16;94814.19;5037832;28;20212;-78
2021/01/09 03:41:41;;;;;;;14.63;9.63;;;2.60;79.30;;;1.46;64.14;94815.94;5050031;28;20278;-78
2021/01/09 03:44:08;;;;;;;12.80;9.13;;;2.60;79.30;;;1.46;64.12;94815.13;5048965;28;20212;-78
2021/01/09 03:46:35;;;;;;;12.82;9.20;;;2.60;79.30;;;1.45;64.12;94822.06;5035496;28;20192;-78
2021/01/09 03:49:02;;;;;;;13.98;9.48;;;2.50;79.20;;;1.42;64.12;94824.94;5051266;28;20194;-78
2021/01/09 03:51:29;;;;;;;12.05;9.60;;;2.60;79.30;;;1.37;63.94;94820.19;5040874;28;20199;-79
2021/01/09 03:53:56;;;;;;;13.32;9.55;;;2.50;79.20;;;1.40;64.19;94821.66;5035138;28;20235;-79
2021/01/09 03:56:22;;;;;;;15.07;9.77;;;2.50;79.20;;;1.37;64.06;94817.59;5033155;28;20724;-79
2021/01/09 03:58:49;;;;;;;13.48;9.60;;;2.50;79.20;;;1.37;64.23;94817.59;5033267;28;20192;-78
2021/01/09 04:01:16;;;;;;;13.73;9.02;;;2.50;79.30;;;1.39;64.18;94822.63;5051287;28;20717;-79
2021/01/09 04:03:43;;;;;;;12.95;9.10;;;2.50;79.30;;;1.41;64.04;94825.88;5051444;28;20207;-78
2021/01/09 04:06:10;;;;;;;14.40;9.23;;;2.50;79.40;;;1.37;64.18;94812.41;5035239;28;20240;-79
2021/01/09 04:08:37;;;;;;;11.73;8.57;;;2.50;79.30;;;1.39;64.18;94813.09;5033078;28;20538;-79
2021/01/09 04:11:04;;;;;;;12.88;9.30;;;2.50;79.30;;;1.41;64.21;94821.53;5031659;28;20219;-79
2021/01/09 04:13:32;;;;;;;13.30;8.82;;;2.50;79.40;;;1.39;64.09;94812.28;5015485;28;20223;-78
2021/01/09 04:16:02;;;;;;;12.23;8.88;;;2.50;79.30;;;1.39;64.24;94817.44;5048895;28;20298;-79
2021/01/09 04:18:30;;;;;;;12.82;9.05;;;2.60;79.50;;;1.42;64.43;94820.56;5060929;28;20219;-79
2021/01/09 04:20:57;;;;;;;14.20;10.18;;;2.50;79.30;;;1.40;64.34;94821.66;5033941;28;20747;-79
2021/01/09 04:23:24;;;;;;;13.70;9.85;;;2.50;79.30;;;1.41;64.60;94825.88;5032819;28;20212;-79
2021/01/09 04:25:51;;;;;;;13.18;9.10;;;2.50;79.30;;;1.41;64.55;94820.72;5048312;28;20232;-79
2021/01/09 04:28:21;;;;;;;14.10;10.18;;;2.50;79.20;;;1.42;64.13;94828.31;5050781;28;20261;-79
2021/01/09 04:30:47;;;;;;;13.23;9.50;;;2.50;79.30;;;1.40;64.31;94827.66;5060389;28;20315;-79
2021/01/09 04:33:15;;;;;;;13.60;9.65;;;2.50;79.20;;;1.38;64.29;94818.38;5030790;28;20227;-78
2021/01/09 04:35:41;;;;;;;13.20;9.55;;;2.50;79.30;;;1.37;64.34;94830.50;5043959;28;20230;-78
2021/01/09 04:38:08;;;;;;;13.40;10.10;;;2.50;79.20;;;1.39;64.14;94833.78;5033055;28;20196;-80
2021/01/09 04:40:37;;;;;;;13.15;9.30;;;2.50;79.20;;;1.40;64.27;94829.41;5008079;28;20217;-79
2021/01/09 04:43:05;;;;;;;12.50;8.70;;;2.50;79.20;;;1.37;64.33;94832.28;5029508;28;20473;-79
2021/01/09 04:45:32;;;;;;;10.88;8.40;;;2.50;79.20;;;1.38;64.01;94834.72;5032058;28;20218;-78
2021/01/09 04:47:59;;;;;;;11.65;8.40;;;2.60;79.40;;;1.38;64.11;94834.72;5046221;28;20681;-78
2021/01/09 04:50:26;;;;;;;13.50;9.38;;;2.50;79.30;;;1.36;64.31;94843.56;5054153;28;20265;-78
2021/01/09 04:52:56;;;;;;;14.48;9.43;;;2.50;79.40;;;1.34;64.34;94841.09;5044408;28;20192;-78
2021/01/09 04:55:23;;;;;;;11.93;8.98;;;2.50;79.30;;;1.33;64.43;94842.09;5047141;28;20216;-78
2021/01/09 04:57:50;;;;;;;11.35;8.57;;;2.50;79.30;;;1.26;64.57;94831.47;5049679;28;20258;-78
2021/01/09 05:00:18;;;;;;;12.80;8.90;;;2.50;79.30;;;1.27;64.38;94850.38;5032651;28;20298;-78
2021/01/09 05:02:46;;;;;;;12.68;9.27;;;2.50;79.40;;;1.26;64.24;94846.97;5031952;28;20311;-79
2021/01/09 05:05:12;;;;;;;12.85;9.40;;;2.40;79.40;;;1.26;64.60;94856.50;5032865;28;20689;-78
2021/01/09 05:07:39;;;;;;;18.73;12.68;;;2.40;79.30;;;1.25;64.51;94847.09;5015639;28;20202;-77
2021/01/09 05:10:06;;;;;;;15.55;10.70;;;2.40;79.30;;;1.23;64.60;94852.41;5050158;28;20219;-78
2021/01/09 05:12:41;;;;;;;13.45;9.90;;;2.40;79.40;;;1.21;64.25;94861.22;5054223;28;20196;-78
2021/01/09 05:15:09;;;;;;;12.60;8.95;;;2.40;79.40;;;1.18;64.32;94872.66;5045354;28;20261;-79
2021/01/09 05:17:38;;;;;;;12.00;9.02;;;2.40;79.30;;;1.13;64.54;94861.13;5034119;28;20203;-79
2021/01/09 05:20:09;;;;;;;12.95;9.73;;;2.40;79.40;;;1.16;64.78;94871.16;5047324;28;20586;-79
2021/01/09 05:22:37;;;;;;;13.23;8.93;;;2.40;79.40;;;1.17;64.77;94870.22;5028705;28;20204;-79
2021/01/09 05:25:07;;;;;;;13.02;9.05;;;2.30;79.40;;;1.15;64.53;94875.53;5052454;28;20235;-79
2021/01/09 05:27:35;;;;;;;12.30;8.73;;;2.30;79.50;;;1.18;64.70;94877.00;5049224;28;20202;-78
2021/01/09 05:30:04;;;;;;;10.90;7.75;;;2.30;79.50;;;1.19;64.58;94874.28;5037704;28;20302;-79
2021/01/09 05:32:31;;;;;;;11.70;8.48;;;2.30;79.50;;;1.19;64.50;94879.47;5054569;28;20245;-79
2021/01/09 05:34:59;;;;;;;11.25;8.85;;;2.30;79.60;;;1.21;64.83;94881.91;5070180;28;20289;-79
2021/01/09 05:37:26;;;;;;;11.20;8.30;;;2.30;79.50;;;1.20;64.68;94886.25;5031954;28;20208;-79
2021/01/09 05:39:55;;;;;;;12.38;8.82;;;2.30;79.50;;;1.22;64.92;94886.97;5038143;28;20247;-79
2021/01/09 05:42:27;;;;;;;11.25;8.30;;;2.30;79.60;;;1.25;64.16;94891.84;5054702;28;20572;-79
2021/01/09 05:44:57;;;;;;;11.65;8.95;;;2.40;79.60;;;1.26;64.30;94885.72;5053397;28;20223;-77
2021/01/09 05:47:29;;;;;;;8.90;7.22;;;2.30;79.50;;;1.27;64.52;94883.97;5037844;28;20200;-78
2021/01/09 05:49:59;;;;;;;11.25;8.15;;;2.40;79.50;;;1.24;64.48;94890.19;5053403;28;20906;-78
2021/01/09 05:52:28;;;;;;;10.73;7.95;;;2.40;79.50;;;1.27;64.12;94889.13;5053995;28;20279;-78
2021/01/09 05:54:56;;;;;;;9.93;7.70;;;2.40;79.40;;;1.20;63.91;94886.25;5037783;28;20327;-78
2021/01/09 05:57:32;;;;;;;11.90;8.68;;;2.40;79.40;;;1.19;64.06;94897.53;5066910;28;20263;-78
2021/01/09 06:00:05;;;;;;;10.57;7.95;;;2.40;79.30;;;1.19;64.29;94901.91;5048425;28;20208;-78
2021/01/09 06:02:55;;;;;;;11.40;7.88;;;2.30;79.20;;;1.17;64.14;94906.38;5059081;28;20193;-79
2021/01/09 06:05:35;;;;;;;11.80;7.95;;;2.30;79.10;;;1.13;64.36;94902.44;5050500;28;20319;-79
2021/01/09 06:08:07;;;;;;;10.57;8.10;;;2.30;79.20;;;1.13;63.96;94903.25;5035982;28;20306;-79
2021/01/09 06:10:40;;;;;;;11.45;7.85;;;2.30;79.10;;;1.12;64.17;94904.19;5036609;28;20208;-79
2021/01/09 06:13:10;;;;;;;9.43;7.47;;;2.30;79.20;;;1.11;64.20;94913.72;5036988;28;20635;-78
2021/01/09 06:15:43;;;;;;;10.27;7.50;;;2.30;79.10;;;1.11;64.12;94908.56;5037096;28;20642;-79
2021/01/09 06:18:10;;;;;;;11.20;7.85;;;2.30;79.20;;;1.09;64.24;94904.47;5053838;28;20576;-78
2021/01/09 06:20:37;;;;;;;9.23;7.05;;;2.30;79.20;;;1.10;64.26;94911.28;5037549;28;20251;-79
2021/01/09 06:23:05;;;;;;;9.70;7.25;;;2.20;79.10;;;1.11;64.17;94920.63;5036770;28;20222;-80
2021/01/09 06:25:35;;;;;;;8.63;6.90;;;2.20;79.10;;;1.09;64.06;94909.63;5037406;28;20565;-79
2021/01/09 06:28:13;;;;;;;10.18;7.07;;;2.20;79.10;;;1.06;64.00;94912.47;5050150;28;20727;-79
2021/01/09 06:30:43;;;;;;;9.35;7.28;;;2.20;79.20;;;1.05;64.03;94910.84;5035577;28;20223;-79
2021/01/09 06:33:16;;;;;;;10.57;7.88;;;2.20;79.20;;;1.03;64.01;94920.50;5035068;28;20172;-79
2021/01/09 06:35:44;;;;;;;10.82;7.38;;;2.20;79.10;;;1.02;64.24;94917.09;5034949;28;20322;-79
2021/01/09 06:38:11;;;;;;;10.13;7.40;;;2.20;79.30;;;1.04;64.15;94922.94;5034412;28;20200;-78
2021/01/09 06:40:38;;;;;;;11.18;8.30;;;2.20;79.20;;;1.02;64.51;94924.84;5050988;28;20223;-78
2021/01/09 06:43:07;;;;;;;10.65;7.95;;;2.20;79.20;;;0.98;64.20;94913.16;5036934;28;20286;-80
2021/01/09 06:45:42;;;;;;;9.65;6.95;;;2.20;79.30;;;1.03;64.00;94929.06;5053031;28;20578;-79
2021/01/09 06:48:11;;;;;;;11.43;7.57;;;2.20;79.30;;;1.05;64.00;94926.34;5036673;28;20219;-79
2021/01/09 06:50:38;;;;;;;10.32;7.70;;;2.20;79.30;;;1.06;64.01;94938.31;5053646;28;20682;-80
2021/01/09 06:53:14;;;;;;;9.55;7.80;;;2.10;79.20;;;1.01;64.18;94933.53;5035923;28;20246;-80
2021/01/09 06:55:41;;;;;;;10.02;8.20;;;2.10;79.30;;;1.03;64.09;94936.81;5036270;28;20254;-79
2021/01/09 06:58:09;;;;;;;10.88;8.20;;;2.10;79.40;;;1.04;64.11;94932.44;5053214;28;20218;-80
2021/01/09 07:00:37;;;;;;;13.15;9.70;;;2.10;79.30;;;1.03;64.09;94936.81;5027048;28;20243;-79
2021/01/09 07:03:12;;;;;;;11.93;8.70;;;2.20;79.40;;;1.04;63.99;94943.63;5041569;28;20681;-79
2021/01/09 07:05:50;;;;;;;11.45;8.30;;;2.20;79.40;;;1.04;64.15;94942.78;5025061;28;20216;-79
2021/01/09 07:08:26;;;;;;;12.50;8.52;;;2.20;79.40;;;1.06;64.32;94938.31;5016623;28;20257;-78
2021/01/09 07:10:59;;;;;;;13.48;9.07;;;2.10;79.40;;;1.03;64.13;94941.16;5045448;28;20269;-79
2021/01/09 07:13:27;;;;;;;12.98;9.85;;;2.10;79.40;;;1.09;64.20;94953.56;5034012;28;20195;-79
2021/01/09 07:16:12;;;;;;;13.95;10.25;;;2.20;79.40;;;1.08;64.00;94949.34;5035134;28;20743;-79
2021/01/09 07:18:46;;;;;;;13.10;10.55;;;2.10;79.40;;;1.08;64.31;94957.88;5035484;28;20809;-78
2021/01/09 07:21:16;;;;;;;13.45;9.60;;;2.20;79.50;;;1.09;64.29;94951.78;5049078;28;20635;-79
2021/01/09 07:23:50;;;;;;;14.27;11.00;;;2.20;79.50;;;1.11;64.19;94954.22;5017207;28;20224;-79
2021/01/09 07:26:18;;;;;;;15.93;10.50;;;2.20;79.50;;;1.10;64.34;94955.19;5033816;28;20600;-78
2021/01/09 07:28:47;;;;;;;12.80;9.57;;;2.20;79.50;;;1.09;64.29;94951.78;5017663;28;20641;-79
2021/01/09 07:31:14;;;;;;;14.65;10.55;;;2.20;79.50;;;1.11;64.02;94964.56;5016762;28;20228;-79
2021/01/09 07:33:45;;;;;;;14.35;10.43;;;2.20;79.50;;;1.12;64.16;94971.34;5033767;28;20224;-79
2021/01/09 07:36:17;;;;;;;13.80;9.88;;;2.30;79.60;;;1.10;64.13;94971.50;5045570;28;20243;-78
2021/01/09 07:38:48;;;;;;;13.07;9.27;;;2.20;79.40;;;1.11;64.36;94972.28;5050133;28;20192;-79
2021/01/09 07:41:35;;;;;;;12.88;9.23;;;2.20;79.40;;;1.15;64.19;94984.03;5048916;28;20208;-77
2021/01/09 07:44:19;;;;;;;16.65;10.68;;;2.30;80.30;;;1.14;64.17;94979.78;5029759;28;20202;-78
2021/01/09 07:47:00;;;;;;;12.35;9.05;;;2.30;79.50;;;1.15;64.29;94978.84;5031784;28;20226;-79
2021/01/09 07:49:34;;;;;;;12.90;9.60;;;2.30;79.50;;;1.21;64.18;94980.06;5032692;28;20230;-79
2021/01/09 07:52:07;;;;;;;15.02;9.63;;;2.30;80.30;;;1.25;64.10;94990.03;5050752;28;20202;-79
2021/01/09 07:54:39;;;;;;;13.40;9.50;;;2.30;79.60;;;1.26;63.96;94985.69;5029185;28;20277;-79
2021/01/09 07:57:25;;;;;;;15.27;10.48;;;2.30;79.50;;;1.27;64.02;94992.50;5072678;28;20618;-79
2021/01/09 07:59:55;;;;;;;13.73;10.23;;;2.40;79.60;;;1.28;64.15;94992.34;5031826;28;20220;-78
2021/01/09 08:02:26;;;;;;;12.85;8.73;;;2.40;79.60;;;1.32;64.19;94992.91;5054960;28;20200;-78
2021/01/09 08:05:25;;;;;;;13.32;9.38;;;2.40;79.50;;;1.36;63.91;94996.84;5048555;28;20212;-78
2021/01/09 08:07:55;;;;;;;14.48;9.27;;;2.40;79.50;;;1.39;64.01;94999.19;5006678;28;20215;-80
2021/01/09 08:10:28;;;;;;;16.13;10.43;;;2.40;79.60;;;1.43;63.93;94997.94;5016869;28;20334;-79
2021/01/09 08:12:58;;;;;;;13.63;9.70;;;2.50;79.60;;;1.47;64.18;95002.88;5050213;28;20199;-79
2021/01/09 08:15:28;;;;;;;14.60;10.25;;;2.50;79.50;;;1.49;64.10;95004.38;5048754;28;20232;-79
2021/01/09 08:17:58;;;;;;;14.45;9.63;;;2.50;79.50;;;1.49;63.96;94996.59;5032745;28;20197;-79
2021/01/09 08:20:25;;;;;;;13.18;9.48;;;2.50;79.50;;;1.59;63.93;95002.59;5050838;28;20716;-79
2021/01/09 08:23:01;;;;;;;13.57;9.95;;;2.60;79.60;;;1.58;63.92;95006.13;5048666;28;20274;-79
2021/01/09 08:25:36;;;;;;;16.40;11.07;;;2.60;79.50;;;1.64;63.79;95009.94;5033050;28;20689;-79
2021/01/09 08:28:04;;;;;;;13.32;10.20;;;2.60;79.40;;;1.64;63.94;95003.97;5013500;28;20685;-78
2021/01/09 08:30:39;;;;;;;13.98;10.07;;;2.70;79.40;;;1.69;63.87;95006.97;5040439;28;20208;-78
2021/01/09 08:33:10;;;;;;;14.55;10.30;;;2.70;79.40;;;1.74;63.81;95021.13;5025914;28;20239;-78
2021/01/09 08:35:48;;;;;;;12.90;9.85;;;2.70;79.40;;;1.78;63.60;95021.66;5036490;28;20333;-78
2021/01/09 08:38:26;;;;;;;15.82;10.63;;;2.80;79.40;;;1.81;63.68;95026.56;5051357;28;20646;-79
2021/01/09 08:40:58;;;;;;;13.70;9.75;;;2.80;79.40;;;1.87;63.78;95028.63;5047044;28;20281;-79
2021/01/09 08:43:26;;;;;;;13.18;10.05;;;2.80;79.40;;;1.91;63.85;95021.41;5051246;28;20199;-79
2021/01/09 08:45:54;;;;;;;12.43;9.18;;;2.90;79.50;;;1.98;63.77;95027.69;5033671;28;20303;-79
2021/01/09 08:48:25;;;;;;;14.48;9.02;;;2.90;79.50;;;2.01;63.65;95027.38;5050975;28;20269;-79
2021/01/09 08:51:11;;;;;;;14.20;10.05;;;2.90;79.50;;;2.07;63.59;95029.44;5050271;28;20293;-79
2021/01/09 08:53:51;;;;;;;14.15;9.70;;;3.00;79.60;;;2.13;63.63;95033.25;5032421;28;20287;-79
2021/01/09 08:56:29;;;;;;;12.65;9.00;;;3.00;79.60;;;2.21;63.49;95029.97;5050648;28;20222;-79
2021/01/09 08:59:03;;;;;;;12.25;8.93;;;3.10;79.60;;;2.25;63.26;95031.34;5029800;28;20204;-79
2021/01/09 09:01:50;;;;;;;14.73;10.27;;;3.10;79.60;;;2.30;63.20;95031.75;5030983;28;20727;-79
2021/01/09 09:04:18;;;;;;;14.30;10.30;;;3.10;79.40;;;2.36;63.14;95030.38;5026115;28;20204;-79
2021/01/09 09:06:45;;;;;;;13.77;10.50;;;3.20;79.50;;;2.40;63.07;95027.38;5033432;28;20279;-80
2021/01/09 09:09:17;;;;;;;16.15;10.73;;;3.30;79.70;;;2.48;63.15;95020.69;5049845;28;21295;-79
2021/01/09 09:11:51;;;;;;;14.68;10.55;;;3.30;79.40;;;2.55;63.03;95021.75;5047375;28;20188;-79
2021/01/09 09:14:19;;;;;;;14.98;10.55;;;3.40;79.40;;;2.60;62.99;95017.00;5030621;28;20602;-79
2021/01/09 09:16:57;;;;;;;16.52;11.23;;;3.40;79.60;;;2.65;62.72;95024.31;5031106;28;20294;-80
2021/01/09 09:19:25;;;;;;;16.15;11.40;;;3.50;79.40;;;2.66;62.85;95015.59;5052576;28;20220;-80
2021/01/09 09:21:58;;;;;;;17.35;11.50;;;3.50;79.30;;;2.75;62.42;95025.13;5018091;28;20207;-80
2021/01/09 09:24:46;;;;;;;15.30;10.98;;;3.60;79.10;;;2.80;62.59;95019.53;5031927;28;20230;-79
2021/01/09 09:27:31;;;;;;;16.05;12.02;;;3.70;79.10;;;2.85;62.54;95019.91;5046581;28;20287;-80
2021/01/09 09:30:14;;;;;;;14.45;10.88;;;3.70;79.10;;;2.93;62.68;95020.03;5068830;28;20689;-79
2021/01/09 09:32:44;;;;;;;16.40;11.20;;;3.80;79.10;;;3.02;62.29;95021.75;5056530;28;20188;-79
2021/01/09 09:35:27;;;;;;;16.45;11.43;;;3.80;79.20;;;3.08;62.20;95028.16;5033629;28;20289;-79
2021/01/09 09:37:59;;;;;;;16.20;11.15;;;3.90;79.10;;;3.13;62.21;95023.34;5063487;28;20200;-79
2021/01/09 09:40:31;;;;;;;15.90;11.30;;;3.90;79.20;;;3.21;62.38;95030.44;5034135;28;20228;-80
2021/01/09 09:43:18;;;;;;;16.05;11.30;;;4.00;79.20;;;3.28;61.84;95028.06;5049500;28;20457;-80
2021/01/09 09:46:01;;;;;;;15.10;10.82;;;4.00;78.90;;;3.34;62.09;95036.09;5047091;28;20231;-80
2021/01/09 09:48:32;;;;;;;18.42;11.95;;;4.20;78.90;;;3.38;62.36;95034.00;5047449;28;20670;-79
2021/01/09 09:51:11;;;;;;;18.10;12.32;;;4.20;79.00;;;3.46;62.41;95033.31;5047385;28;20589;-79
2021/01/09 09:53:49;;;;;;;17.42;12.63;;;4.20;78.80;;;3.53;62.18;95031.78;5030651;28;20681;-80
2021/01/09 09:56:21;;;;;;;16.50;12.02;;;4.30;79.10;;;3.62;62.17;95038.66;5044075;28;20266;-79
2021/01/09 09:59:04;;;;;;;16.63;12.02;;;4.30;79.10;;;3.69;62.30;95031.13;5031469;28;20200;-80
2021/01/09 10:01:31;;;;;;;16.42;11.48;;;4.40;79.00;;;3.75;62.10;95020.16;5031659;28;20225;-79
2021/01/09 10:04:00;;;;;;;15.73;11.43;;;4.50;79.20;;;3.83;62.31;95024.59;5032797;28;20210;-79
2021/01/09 10:06:39;;;;;;;16.50;11.55;;;4.50;79.10;;;3.91;61.63;95023.88;5037111;28;20197;-79
2021/01/09 10:09:18;;;;;;;16.60;12.02;;;4.60;78.80;;;3.92;61.67;95021.13;5016386;28;20204;-79
2021/01/09 10:11:48;;;;;;;13.90;10.23;;;4.70;78.50;;;3.95;61.48;95020.81;5051144;28;20268;-79
2021/01/09 10:14:22;;;;;;;16.38;11.75;;;4.70;78.70;;;4.02;61.56;95015.88;5035630;28;20313;-78
2021/01/09 10:16:49;;;;;;;14.57;11.02;;;4.80;78.80;;;4.07;61.25;95018.03;5051962;28;20191;-79
2021/01/09 10:19:18;;;;;;;14.23;9.63;;;4.80;78.70;;;4.13;61.72;95002.66;5035585;28;20274;-78
2021/01/09 10:21:46;;;;;;;13.90;9.88;;;4.90;78.90;;;4.20;61.59;95007.25;5035459;28;20207;-79
2021/01/09 10:24:13;;;;;;;13.82;9.70;;;4.90;78.70;;;4.19;61.69;94990.03;5052513;28;20211;-79
2021/01/09 10:26:39;;;;;;;13.65;9.48;;;5.00;78.70;;;4.25;61.07;94995.47;5053046;28;20207;-79
2021/01/09 10:29:06;;;;;;;14.75;10.60;;;5.00;78.60;;;4.26;60.43;94996.25;5052938;28;20283;-79
2021/01/09 10:31:39;;;;;;;13.38;10.05;;;5.10;78.20;;;4.20;60.43;94987.31;5052713;28;20282;-79
2021/01/09 10:34:07;;;;;;;11.63;8.80;;;5.10;77.70;;;4.23;60.54;94992.19;5035463;28;20246;-79
2021/01/09 10:36:38;;;;;;;14.10;10.10;;;5.10;77.90;;;4.19;60.09;94983.09;5036602;28;20267;-80